sensor_id;sensor_type;location;lat;lon;timestamp;pressure;altitude;pressure_sealevel;temperature;humidity
77303;BME280;66363;49.828;7.856;2023-04-25T00:01:46;99548.47;;;6.97;88.21
77303;BME280;66363;49.828;7.856;2023-04-25T00:04:13;99553.19;;;6.92;88.49
77303;BME280;66363;49.828;7.856;2023-04-25T00:06:39;99563.53;;;6.95;88.50
77303;BME280;66363;49.828;7.856;2023-04-25T00:09:05;99559.31;;;6.93;89.50
77303;BME280;66363;49.828;7.856;2023-04-25T00:11:31;99561.00;;;6.94;87.92
77303;BME280;66363;49.828;7.856;2023-04-25T00:13:56;99565.03;;;6.99;87.78
77303;BME280;66363;49.828;7.856;2023-04-25T00:16:22;99560.91;;;6.95;88.44
77303;BME280;66363;49.828;7.856;2023-04-25T00:18:48;99563.34;;;6.98;88.34
77303;BME280;66363;49.828;7.856;2023-04-25T00:21:15;99558.25;;;6.95;88.61
77303;BME280;66363;49.828;7.856;2023-04-25T00:23:41;99572.72;;;7.02;88.07
77303;BME280;66363;49.828;7.856;2023-04-25T00:26:07;99567.56;;;7.01;88.92
77303;BME280;66363;49.828;7.856;2023-04-25T00:28:32;99575.34;;;7.02;88.11
77303;BME280;66363;49.828;7.856;2023-04-25T00:30:58;99565.66;;;7.03;88.19
77303;BME280;66363;49.828;7.856;2023-04-25T00:33:23;99564.09;;;7.00;88.08
77303;BME280;66363;49.828;7.856;2023-04-25T00:35:49;99556.69;;;7.05;87.99
77303;BME280;66363;49.828;7.856;2023-04-25T00:38:16;99561.13;;;7.05;86.88
77303;BME280;66363;49.828;7.856;2023-04-25T00:40:42;99555.56;;;7.09;86.97
77303;BME280;66363;49.828;7.856;2023-04-25T00:43:08;99552.59;;;7.01;88.01
77303;BME280;66363;49.828;7.856;2023-04-25T00:45:38;99550.06;;;7.00;88.64
77303;BME280;66363;49.828;7.856;2023-04-25T00:48:05;99547.50;;;6.98;88.59
77303;BME280;66363;49.828;7.856;2023-04-25T00:50:30;99541.81;;;7.04;88.79
77303;BME280;66363;49.828;7.856;2023-04-25T00:52:58;99549.63;;;7.06;88.27
77303;BME280;66363;49.828;7.856;2023-04-25T00:55:25;99538.13;;;7.07;89.27
77303;BME280;66363;49.828;7.856;2023-04-25T00:57:51;99538.44;;;7.02;88.92
77303;BME280;66363;49.828;7.856;2023-04-25T01:00:18;99540.34;;;7.00;89.15
77303;BME280;66363;49.828;7.856;2023-04-25T01:02:44;99536.97;;;6.98;88.34
77303;BME280;66363;49.828;7.856;2023-04-25T01:05:10;99543.59;;;7.04;87.34
77303;BME280;66363;49.828;7.856;2023-04-25T01:07:36;99541.72;;;7.06;87.07
77303;BME280;66363;49.828;7.856;2023-04-25T01:10:02;99535.69;;;7.04;88.48
77303;BME280;66363;49.828;7.856;2023-04-25T01:12:29;99545.28;;;7.05;87.73
77303;BME280;66363;49.828;7.856;2023-04-25T01:14:55;99541.06;;;7.02;87.45
77303;BME280;66363;49.828;7.856;2023-04-25T01:17:20;99539.91;;;7.06;87.38
77303;BME280;66363;49.828;7.856;2023-04-25T01:19:46;99536.75;;;7.01;88.45
77303;BME280;66363;49.828;7.856;2023-04-25T01:22:14;99537.72;;;7.00;88.56
77303;BME280;66363;49.828;7.856;2023-04-25T01:24:39;99536.88;;;7.00;88.43
77303;BME280;66363;49.828;7.856;2023-04-25T01:27:05;99544.78;;;7.00;89.93
77303;BME280;66363;49.828;7.856;2023-04-25T01:29:32;99538.44;;;7.02;88.98
77303;BME280;66363;49.828;7.856;2023-04-25T01:31:59;99527.34;;;6.97;88.83
77303;BME280;66363;49.828;7.856;2023-04-25T01:34:25;99532.84;;;7.07;89.57
77303;BME280;66363;49.828;7.856;2023-04-25T01:36:51;99532.75;;;7.08;88.03
77303;BME280;66363;49.828;7.856;2023-04-25T01:39:18;99531.16;;;7.06;88.95
77303;BME280;66363;49.828;7.856;2023-04-25T01:41:44;99535.59;;;7.05;88.80
77303;BME280;66363;49.828;7.856;2023-04-25T01:44:10;99546.78;;;7.09;88.58
77303;BME280;66363;49.828;7.856;2023-04-25T01:46:36;99538.31;;;7.04;89.76
77303;BME280;66363;49.828;7.856;2023-04-25T01:49:02;99537.94;;;7.10;88.34
77303;BME280;66363;49.828;7.856;2023-04-25T01:51:28;99542.38;;;7.09;88.45
77303;BME280;66363;49.828;7.856;2023-04-25T01:53:53;99548.59;;;7.08;87.44
77303;BME280;66363;49.828;7.856;2023-04-25T01:56:21;99548.13;;;7.02;88.25
77303;BME280;66363;49.828;7.856;2023-04-25T01:58:47;99546.34;;;7.02;87.46
77303;BME280;66363;49.828;7.856;2023-04-25T02:01:13;99544.56;;;7.03;87.09
77303;BME280;66363;49.828;7.856;2023-04-25T02:03:39;99540.75;;;6.94;88.66
77303;BME280;66363;49.828;7.856;2023-04-25T02:06:05;99553.84;;;6.96;88.89
77303;BME280;66363;49.828;7.856;2023-04-25T02:08:31;99558.34;;;6.94;87.93
77303;BME280;66363;49.828;7.856;2023-04-25T02:10:56;99552.63;;;6.87;88.02
77303;BME280;66363;49.828;7.856;2023-04-25T02:13:24;99561.34;;;6.75;88.54
77303;BME280;66363;49.828;7.856;2023-04-25T02:15:49;99555.59;;;6.68;88.95
77303;BME280;66363;49.828;7.856;2023-04-25T02:18:15;99556.47;;;6.55;89.83
77303;BME280;66363;49.828;7.856;2023-04-25T02:20:41;99555.19;;;6.47;90.54
77303;BME280;66363;49.828;7.856;2023-04-25T02:23:06;99550.94;;;6.45;90.64
77303;BME280;66363;49.828;7.856;2023-04-25T02:25:32;99551.69;;;6.47;90.87
77303;BME280;66363;49.828;7.856;2023-04-25T02:27:58;99550.66;;;6.50;90.94
77303;BME280;66363;49.828;7.856;2023-04-25T02:30:25;99562.78;;;6.52;90.76
77303;BME280;66363;49.828;7.856;2023-04-25T02:32:50;99560.97;;;6.53;90.33
77303;BME280;66363;49.828;7.856;2023-04-25T02:35:16;99563.25;;;6.59;90.42
77303;BME280;66363;49.828;7.856;2023-04-25T02:37:42;99558.03;;;6.71;88.94
77303;BME280;66363;49.828;7.856;2023-04-25T02:40:08;99554.28;;;6.75;88.63
77303;BME280;66363;49.828;7.856;2023-04-25T02:42:34;99542.66;;;6.78;88.24
77303;BME280;66363;49.828;7.856;2023-04-25T02:45:00;99521.56;;;6.78;88.14
77303;BME280;66363;49.828;7.856;2023-04-25T02:47:27;99532.34;;;6.75;89.17
77303;BME280;66363;49.828;7.856;2023-04-25T02:49:53;99535.19;;;6.85;88.62
77303;BME280;66363;49.828;7.856;2023-04-25T02:52:19;99531.81;;;6.82;88.37
77303;BME280;66363;49.828;7.856;2023-04-25T02:54:44;99534.75;;;6.78;88.64
77303;BME280;66363;49.828;7.856;2023-04-25T02:57:10;99534.84;;;6.76;89.76
77303;BME280;66363;49.828;7.856;2023-04-25T02:59:36;99532.22;;;6.76;89.35
77303;BME280;66363;49.828;7.856;2023-04-25T03:02:02;99529.13;;;6.70;89.75
77303;BME280;66363;49.828;7.856;2023-04-25T03:04:29;99530.00;;;6.70;89.85
77303;BME280;66363;49.828;7.856;2023-04-25T03:06:55;99532.63;;;6.70;90.17
77303;BME280;66363;49.828;7.856;2023-04-25T03:09:21;99541.75;;;6.65;90.01
77303;BME280;66363;49.828;7.856;2023-04-25T03:11:46;99541.22;;;6.60;90.78
77303;BME280;66363;49.828;7.856;2023-04-25T03:14:12;99534.44;;;6.56;90.23
77303;BME280;66363;49.828;7.856;2023-04-25T03:16:38;99542.75;;;6.50;91.14
77303;BME280;66363;49.828;7.856;2023-04-25T03:19:04;99541.25;;;6.45;91.52
77303;BME280;66363;49.828;7.856;2023-04-25T03:21:32;99544.25;;;6.39;91.96
77303;BME280;66363;49.828;7.856;2023-04-25T03:23:59;99540.50;;;6.29;92.24
77303;BME280;66363;49.828;7.856;2023-04-25T03:26:24;99542.78;;;6.21;92.29
77303;BME280;66363;49.828;7.856;2023-04-25T03:28:50;99538.03;;;6.26;92.19
77303;BME280;66363;49.828;7.856;2023-04-25T03:31:16;99537.19;;;6.26;92.36
77303;BME280;66363;49.828;7.856;2023-04-25T03:33:42;99537.03;;;6.15;92.40
77303;BME280;66363;49.828;7.856;2023-04-25T03:36:08;99531.50;;;6.19;92.71
77303;BME280;66363;49.828;7.856;2023-04-25T03:38:35;99539.09;;;6.24;93.10
77303;BME280;66363;49.828;7.856;2023-04-25T03:41:01;99540.50;;;6.29;92.75
77303;BME280;66363;49.828;7.856;2023-04-25T03:43:26;99532.50;;;6.31;91.93
77303;BME280;66363;49.828;7.856;2023-04-25T03:45:52;99529.38;;;6.24;92.58
77303;BME280;66363;49.828;7.856;2023-04-25T03:48:18;99536.44;;;6.24;91.82
77303;BME280;66363;49.828;7.856;2023-04-25T03:50:43;99536.34;;;6.25;91.82
77303;BME280;66363;49.828;7.856;2023-04-25T03:53:09;99539.22;;;6.22;92.34
77303;BME280;66363;49.828;7.856;2023-04-25T03:55:36;99540.59;;;6.28;91.74
77303;BME280;66363;49.828;7.856;2023-04-25T03:58:02;99532.50;;;6.31;91.89
77303;BME280;66363;49.828;7.856;2023-04-25T04:00:27;99535.97;;;6.31;91.93
77303;BME280;66363;49.828;7.856;2023-04-25T04:02:53;99535.22;;;6.29;92.64
77303;BME280;66363;49.828;7.856;2023-04-25T04:05:19;99544.53;;;6.35;92.20
77303;BME280;66363;49.828;7.856;2023-04-25T04:07:44;99550.47;;;6.38;91.85
77303;BME280;66363;49.828;7.856;2023-04-25T04:10:10;99539.00;;;6.39;91.86
77303;BME280;66363;49.828;7.856;2023-04-25T04:12:38;99548.50;;;6.42;91.35
77303;BME280;66363;49.828;7.856;2023-04-25T04:15:04;99554.13;;;6.36;91.56
77303;BME280;66363;49.828;7.856;2023-04-25T04:17:30;99556.22;;;6.45;92.48
77303;BME280;66363;49.828;7.856;2023-04-25T04:19:56;99557.53;;;6.38;92.16
77303;BME280;66363;49.828;7.856;2023-04-25T04:22:22;99562.81;;;6.38;92.69
77303;BME280;66363;49.828;7.856;2023-04-25T04:24:48;99574.38;;;6.50;92.01
77303;BME280;66363;49.828;7.856;2023-04-25T04:27:14;99564.75;;;6.63;92.58
77303;BME280;66363;49.828;7.856;2023-04-25T04:29:41;99573.97;;;6.56;92.34
77303;BME280;66363;49.828;7.856;2023-04-25T04:32:06;99572.28;;;6.55;91.99
77303;BME280;66363;49.828;7.856;2023-04-25T04:34:32;99577.25;;;6.59;92.27
77303;BME280;66363;49.828;7.856;2023-04-25T04:36:57;99574.63;;;6.73;90.51
77303;BME280;66363;49.828;7.856;2023-04-25T04:39:24;99569.78;;;6.80;90.25
77303;BME280;66363;49.828;7.856;2023-04-25T04:41:50;99572.97;;;6.85;90.01
77303;BME280;66363;49.828;7.856;2023-04-25T04:44:15;99579.00;;;6.87;90.52
77303;BME280;66363;49.828;7.856;2023-04-25T04:46:42;99584.94;;;6.91;89.55
77303;BME280;66363;49.828;7.856;2023-04-25T04:49:08;99588.31;;;6.93;89.59
77303;BME280;66363;49.828;7.856;2023-04-25T04:51:34;99588.88;;;6.98;90.53
77303;BME280;66363;49.828;7.856;2023-04-25T04:54:00;99592.69;;;7.06;89.81
77303;BME280;66363;49.828;7.856;2023-04-25T04:56:25;99591.25;;;7.15;89.91
77303;BME280;66363;49.828;7.856;2023-04-25T04:58:51;99596.47;;;7.29;89.40
77303;BME280;66363;49.828;7.856;2023-04-25T05:01:17;99593.13;;;7.40;89.60
77303;BME280;66363;49.828;7.856;2023-04-25T05:03:44;99608.59;;;7.59;88.72
77303;BME280;66363;49.828;7.856;2023-04-25T05:06:09;99592.38;;;7.77;88.45
77303;BME280;66363;49.828;7.856;2023-04-25T05:08:36;99599.34;;;7.78;88.66
77303;BME280;66363;49.828;7.856;2023-04-25T05:11:02;99609.78;;;7.80;87.81
77303;BME280;66363;49.828;7.856;2023-04-25T05:13:27;99608.13;;;7.92;86.58
77303;BME280;66363;49.828;7.856;2023-04-25T05:15:53;99610.88;;;7.90;85.10
77303;BME280;66363;49.828;7.856;2023-04-25T05:18:18;99615.06;;;7.80;85.66
77303;BME280;66363;49.828;7.856;2023-04-25T05:20:46;99614.25;;;7.79;85.15
77303;BME280;66363;49.828;7.856;2023-04-25T05:23:11;99623.00;;;7.80;84.54
77303;BME280;66363;49.828;7.856;2023-04-25T05:25:37;99616.56;;;7.71;80.77
77303;BME280;66363;49.828;7.856;2023-04-25T05:28:03;99623.38;;;7.61;82.74
77303;BME280;66363;49.828;7.856;2023-04-25T05:30:28;99622.53;;;7.61;82.23
77303;BME280;66363;49.828;7.856;2023-04-25T05:32:54;99628.88;;;7.58;82.22
77303;BME280;66363;49.828;7.856;2023-04-25T05:35:20;99636.78;;;7.58;81.30
77303;BME280;66363;49.828;7.856;2023-04-25T05:37:47;99641.00;;;7.61;81.58
77303;BME280;66363;49.828;7.856;2023-04-25T05:40:12;99629.84;;;7.70;81.07
77303;BME280;66363;49.828;7.856;2023-04-25T05:42:38;99631.25;;;7.75;78.71
77303;BME280;66363;49.828;7.856;2023-04-25T05:45:05;99631.75;;;7.68;78.40
77303;BME280;66363;49.828;7.856;2023-04-25T05:47:31;99632.69;;;7.67;79.44
77303;BME280;66363;49.828;7.856;2023-04-25T05:49:56;99636.94;;;7.69;78.75
77303;BME280;66363;49.828;7.856;2023-04-25T05:52:22;99637.03;;;7.68;80.90
77303;BME280;66363;49.828;7.856;2023-04-25T05:54:49;99633.53;;;7.67;79.68
77303;BME280;66363;49.828;7.856;2023-04-25T05:57:22;99642.13;;;7.71;79.49
77303;BME280;66363;49.828;7.856;2023-04-25T05:59:48;99639.78;;;7.66;80.69
77303;BME280;66363;49.828;7.856;2023-04-25T06:02:14;99642.25;;;7.55;80.34
77303;BME280;66363;49.828;7.856;2023-04-25T06:04:39;99637.88;;;7.68;80.14
77303;BME280;66363;49.828;7.856;2023-04-25T06:07:05;99637.56;;;7.73;80.07
77303;BME280;66363;49.828;7.856;2023-04-25T06:09:30;99636.09;;;7.81;80.48
77303;BME280;66363;49.828;7.856;2023-04-25T06:11:58;99645.50;;;7.86;80.11
77303;BME280;66363;49.828;7.856;2023-04-25T06:14:23;99648.78;;;7.89;79.92
77303;BME280;66363;49.828;7.856;2023-04-25T06:16:49;99648.34;;;7.82;80.65
77303;BME280;66363;49.828;7.856;2023-04-25T06:19:14;99655.22;;;7.85;81.11
77303;BME280;66363;49.828;7.856;2023-04-25T06:21:43;99644.88;;;7.82;79.57
77303;BME280;66363;49.828;7.856;2023-04-25T06:24:08;99664.19;;;7.70;78.05
77303;BME280;66363;49.828;7.856;2023-04-25T06:26:34;99668.06;;;7.64;76.17
77303;BME280;66363;49.828;7.856;2023-04-25T06:29:01;99670.06;;;7.61;77.61
77303;BME280;66363;49.828;7.856;2023-04-25T06:31:27;99663.34;;;7.69;78.77
77303;BME280;66363;49.828;7.856;2023-04-25T06:33:52;99673.06;;;7.81;77.94
77303;BME280;66363;49.828;7.856;2023-04-25T06:36:18;99676.81;;;7.92;77.58
77303;BME280;66363;49.828;7.856;2023-04-25T06:38:44;99674.06;;;7.93;77.89
77303;BME280;66363;49.828;7.856;2023-04-25T06:41:09;99687.88;;;7.84;76.50
77303;BME280;66363;49.828;7.856;2023-04-25T06:43:35;99683.97;;;7.77;76.63
77303;BME280;66363;49.828;7.856;2023-04-25T06:46:02;99690.50;;;7.84;76.78
77303;BME280;66363;49.828;7.856;2023-04-25T06:48:28;99691.16;;;7.88;77.64
77303;BME280;66363;49.828;7.856;2023-04-25T06:50:54;99690.97;;;7.91;75.66
77303;BME280;66363;49.828;7.856;2023-04-25T06:53:19;99691.06;;;7.89;73.89
77303;BME280;66363;49.828;7.856;2023-04-25T06:55:45;99690.97;;;7.91;73.93
77303;BME280;66363;49.828;7.856;2023-04-25T06:58:10;99688.47;;;8.02;73.95
77303;BME280;66363;49.828;7.856;2023-04-25T07:00:36;99699.16;;;8.13;73.23
77303;BME280;66363;49.828;7.856;2023-04-25T07:03:03;99687.81;;;8.11;72.32
77303;BME280;66363;49.828;7.856;2023-04-25T07:05:29;99692.50;;;8.20;71.50
77303;BME280;66363;49.828;7.856;2023-04-25T07:07:54;99700.63;;;8.17;71.27
77303;BME280;66363;49.828;7.856;2023-04-25T07:10:20;99698.41;;;8.11;70.98
77303;BME280;66363;49.828;7.856;2023-04-25T07:12:46;99696.09;;;8.19;70.94
77303;BME280;66363;49.828;7.856;2023-04-25T07:15:11;99699.88;;;8.15;70.78
77303;BME280;66363;49.828;7.856;2023-04-25T07:17:37;99696.91;;;7.94;72.64
77303;BME280;66363;49.828;7.856;2023-04-25T07:20:05;99701.97;;;7.97;71.86
77303;BME280;66363;49.828;7.856;2023-04-25T07:22:31;99700.50;;;8.06;72.01
77303;BME280;66363;49.828;7.856;2023-04-25T07:24:57;99703.81;;;8.22;72.41
77303;BME280;66363;49.828;7.856;2023-04-25T07:27:23;99707.75;;;8.29;72.07
77303;BME280;66363;49.828;7.856;2023-04-25T07:29:48;99699.00;;;8.41;72.15
77303;BME280;66363;49.828;7.856;2023-04-25T07:32:14;99716.13;;;8.61;70.30
77303;BME280;66363;49.828;7.856;2023-04-25T07:34:40;99704.94;;;8.70;70.19
77303;BME280;66363;49.828;7.856;2023-04-25T07:37:07;99714.31;;;8.87;70.39
77303;BME280;66363;49.828;7.856;2023-04-25T07:39:32;99719.69;;;9.11;68.65
77303;BME280;66363;49.828;7.856;2023-04-25T07:41:58;99712.03;;;9.32;68.13
77303;BME280;66363;49.828;7.856;2023-04-25T07:44:24;99722.06;;;9.63;67.50
77303;BME280;66363;49.828;7.856;2023-04-25T07:46:49;99717.75;;;9.86;66.46
77303;BME280;66363;49.828;7.856;2023-04-25T07:49:15;99723.13;;;10.08;64.45
77303;BME280;66363;49.828;7.856;2023-04-25T07:51:41;99721.44;;;10.31;65.24
77303;BME280;66363;49.828;7.856;2023-04-25T07:54:08;99713.38;;;10.44;64.82
77303;BME280;66363;49.828;7.856;2023-04-25T07:56:33;99724.88;;;10.56;61.48
77303;BME280;66363;49.828;7.856;2023-04-25T07:58:59;99730.06;;;10.79;61.69
77303;BME280;66363;49.828;7.856;2023-04-25T08:01:25;99741.78;;;11.21;59.09
77303;BME280;66363;49.828;7.856;2023-04-25T08:03:50;99737.22;;;11.89;57.88
77303;BME280;66363;49.828;7.856;2023-04-25T08:06:16;99740.66;;;12.33;57.56
77303;BME280;66363;49.828;7.856;2023-04-25T08:08:41;99738.19;;;12.20;57.02
77303;BME280;66363;49.828;7.856;2023-04-25T08:11:09;99738.09;;;12.42;57.40
77303;BME280;66363;49.828;7.856;2023-04-25T08:13:34;99741.13;;;12.58;54.54
77303;BME280;66363;49.828;7.856;2023-04-25T08:16:00;99739.13;;;12.72;55.04
77303;BME280;66363;49.828;7.856;2023-04-25T08:18:26;99744.28;;;12.32;56.64
77303;BME280;66363;49.828;7.856;2023-04-25T08:20:51;99752.97;;;12.13;55.31
77303;BME280;66363;49.828;7.856;2023-04-25T08:23:17;99754.03;;;11.89;55.53
77303;BME280;66363;49.828;7.856;2023-04-25T08:25:42;99760.41;;;11.76;57.12
77303;BME280;66363;49.828;7.856;2023-04-25T08:28:09;99762.69;;;11.15;57.81
77303;BME280;66363;49.828;7.856;2023-04-25T08:30:36;99764.47;;;10.92;58.45
77303;BME280;66363;49.828;7.856;2023-04-25T08:33:01;99768.69;;;10.95;59.07
77303;BME280;66363;49.828;7.856;2023-04-25T08:35:27;99764.94;;;10.75;59.53
77303;BME280;66363;49.828;7.856;2023-04-25T08:37:52;99778.53;;;10.59;60.55
77303;BME280;66363;49.828;7.856;2023-04-25T08:40:19;99778.47;;;10.83;57.98
77303;BME280;66363;49.828;7.856;2023-04-25T08:42:49;99784.84;;;10.92;59.02
77303;BME280;66363;49.828;7.856;2023-04-25T08:45:17;99780.78;;;10.87;57.53
77303;BME280;66363;49.828;7.856;2023-04-25T08:47:43;99797.44;;;10.90;58.36
77303;BME280;66363;49.828;7.856;2023-04-25T08:50:10;99788.72;;;10.99;58.21
77303;BME280;66363;49.828;7.856;2023-04-25T08:52:37;99796.94;;;11.07;60.00
77303;BME280;66363;49.828;7.856;2023-04-25T08:55:07;99801.19;;;11.09;59.20
77303;BME280;66363;49.828;7.856;2023-04-25T08:57:34;99804.69;;;11.10;56.68
77303;BME280;66363;49.828;7.856;2023-04-25T09:00:01;99801.16;;;10.98;59.98
77303;BME280;66363;49.828;7.856;2023-04-25T09:02:28;99809.81;;;10.78;59.10
77303;BME280;66363;49.828;7.856;2023-04-25T09:04:55;99812.75;;;10.97;59.86
77303;BME280;66363;49.828;7.856;2023-04-25T09:07:21;99818.34;;;11.39;58.29
77303;BME280;66363;49.828;7.856;2023-04-25T09:09:46;99823.88;;;11.58;58.76
77303;BME280;66363;49.828;7.856;2023-04-25T09:12:12;99829.66;;;11.74;57.49
77303;BME280;66363;49.828;7.856;2023-04-25T09:14:38;99833.91;;;12.31;59.30
77303;BME280;66363;49.828;7.856;2023-04-25T09:17:04;99826.47;;;13.50;54.84
77303;BME280;66363;49.828;7.856;2023-04-25T09:19:33;99832.97;;;13.67;53.29
77303;BME280;66363;49.828;7.856;2023-04-25T09:22:00;99833.75;;;13.27;54.11
77303;BME280;66363;49.828;7.856;2023-04-25T09:24:35;99835.97;;;12.80;52.85
77303;BME280;66363;49.828;7.856;2023-04-25T09:27:03;99842.50;;;12.35;54.45
77303;BME280;66363;49.828;7.856;2023-04-25T09:29:29;99854.47;;;11.86;56.12
77303;BME280;66363;49.828;7.856;2023-04-25T09:32:10;99855.06;;;11.78;56.45
77303;BME280;66363;49.828;7.856;2023-04-25T09:34:40;99856.88;;;11.78;56.01
77303;BME280;66363;49.828;7.856;2023-04-25T09:37:06;99867.00;;;12.06;56.13
77303;BME280;66363;49.828;7.856;2023-04-25T09:39:33;99865.22;;;12.39;52.28
77303;BME280;66363;49.828;7.856;2023-04-25T09:41:59;99876.75;;;12.60;52.61
77303;BME280;66363;49.828;7.856;2023-04-25T09:44:24;99876.13;;;12.68;51.97
77303;BME280;66363;49.828;7.856;2023-04-25T09:46:50;99872.63;;;12.24;54.12
77303;BME280;66363;49.828;7.856;2023-04-25T09:49:15;99879.00;;;11.78;55.57
77303;BME280;66363;49.828;7.856;2023-04-25T09:51:53;99876.66;;;11.29;56.83
77303;BME280;66363;49.828;7.856;2023-04-25T09:54:19;99886.81;;;11.35;56.61
77303;BME280;66363;49.828;7.856;2023-04-25T09:56:48;99888.31;;;11.04;57.45
77303;BME280;66363;49.828;7.856;2023-04-25T09:59:16;99890.44;;;10.88;57.04
77303;BME280;66363;49.828;7.856;2023-04-25T10:01:43;99895.47;;;10.80;57.87
77303;BME280;66363;49.828;7.856;2023-04-25T10:04:11;99901.56;;;10.58;58.71
77303;BME280;66363;49.828;7.856;2023-04-25T10:06:37;99903.06;;;10.49;59.21
77303;BME280;66363;49.828;7.856;2023-04-25T10:09:05;99902.22;;;10.49;56.68
77303;BME280;66363;49.828;7.856;2023-04-25T10:11:32;99899.91;;;10.44;57.76
77303;BME280;66363;49.828;7.856;2023-04-25T10:13:59;99888.75;;;10.87;56.59
77303;BME280;66363;49.828;7.856;2023-04-25T10:16:25;99895.59;;;12.25;53.66
77303;BME280;66363;49.828;7.856;2023-04-25T10:18:51;99897.13;;;13.44;50.76
77303;BME280;66363;49.828;7.856;2023-04-25T10:21:19;99886.84;;;14.70;45.23
77303;BME280;66363;49.828;7.856;2023-04-25T10:23:46;99897.63;;;15.26;44.88
77303;BME280;66363;49.828;7.856;2023-04-25T10:26:13;99891.88;;;15.31;44.07
77303;BME280;66363;49.828;7.856;2023-04-25T10:28:54;99899.97;;;17.03;41.63
77303;BME280;66363;49.828;7.856;2023-04-25T10:31:20;99887.97;;;19.81;35.88
77303;BME280;66363;49.828;7.856;2023-04-25T10:33:46;99890.34;;;22.19;33.12
77303;BME280;66363;49.828;7.856;2023-04-25T10:36:11;99880.38;;;21.90;31.06
77303;BME280;66363;49.828;7.856;2023-04-25T10:38:37;99887.44;;;19.94;30.38
77303;BME280;66363;49.828;7.856;2023-04-25T10:41:03;99890.16;;;17.89;36.56
77303;BME280;66363;49.828;7.856;2023-04-25T10:43:38;99887.38;;;16.50;38.79
77303;BME280;66363;49.828;7.856;2023-04-25T10:46:16;99881.09;;;15.50;41.17
77303;BME280;66363;49.828;7.856;2023-04-25T10:48:48;99887.94;;;14.57;44.04
77303;BME280;66363;49.828;7.856;2023-04-25T10:51:22;99897.13;;;14.15;44.71
77303;BME280;66363;49.828;7.856;2023-04-25T10:53:57;99893.78;;;13.82;44.17
77303;BME280;66363;49.828;7.856;2023-04-25T10:56:25;99891.03;;;13.33;47.32
77303;BME280;66363;49.828;7.856;2023-04-25T10:59:03;99890.28;;;13.10;46.44
77303;BME280;66363;49.828;7.856;2023-04-25T11:01:36;99891.03;;;12.59;48.35
77303;BME280;66363;49.828;7.856;2023-04-25T11:04:02;99903.13;;;12.52;48.68
77303;BME280;66363;49.828;7.856;2023-04-25T11:06:32;99901.13;;;12.44;48.48
77303;BME280;66363;49.828;7.856;2023-04-25T11:09:01;99909.34;;;12.73;49.61
77303;BME280;66363;49.828;7.856;2023-04-25T11:11:28;99913.66;;;12.85;50.28
77303;BME280;66363;49.828;7.856;2023-04-25T11:13:55;99907.81;;;13.23;49.11
77303;BME280;66363;49.828;7.856;2023-04-25T11:16:23;99919.72;;;13.08;47.27
77303;BME280;66363;49.828;7.856;2023-04-25T11:18:49;99922.63;;;13.16;45.42
77303;BME280;66363;49.828;7.856;2023-04-25T11:21:15;99922.72;;;12.94;46.42
77303;BME280;66363;49.828;7.856;2023-04-25T11:23:44;99921.22;;;13.01;46.23
77303;BME280;66363;49.828;7.856;2023-04-25T11:26:11;99913.31;;;12.79;47.77
77303;BME280;66363;49.828;7.856;2023-04-25T11:28:36;99917.44;;;12.83;47.37
77303;BME280;66363;49.828;7.856;2023-04-25T11:31:04;99919.00;;;12.85;46.03
77303;BME280;66363;49.828;7.856;2023-04-25T11:33:29;99912.19;;;12.61;47.83
77303;BME280;66363;49.828;7.856;2023-04-25T11:35:55;99908.47;;;12.52;46.53
77303;BME280;66363;49.828;7.856;2023-04-25T11:38:21;99914.13;;;12.58;47.05
77303;BME280;66363;49.828;7.856;2023-04-25T11:40:49;99917.78;;;12.57;48.59
77303;BME280;66363;49.828;7.856;2023-04-25T11:43:15;99921.81;;;12.41;48.23
77303;BME280;66363;49.828;7.856;2023-04-25T11:45:41;99927.94;;;12.52;49.68
77303;BME280;66363;49.828;7.856;2023-04-25T11:48:08;99911.97;;;12.52;49.03
77303;BME280;66363;49.828;7.856;2023-04-25T11:50:33;99920.19;;;12.61;46.74
77303;BME280;66363;49.828;7.856;2023-04-25T11:52:59;99927.06;;;12.95;48.87
77303;BME280;66363;49.828;7.856;2023-04-25T11:55:25;99916.28;;;13.59;45.55
77303;BME280;66363;49.828;7.856;2023-04-25T11:57:50;99914.66;;;14.48;43.43
77303;BME280;66363;49.828;7.856;2023-04-25T12:00:18;99914.81;;;14.85;44.13
77303;BME280;66363;49.828;7.856;2023-04-25T12:02:45;99921.97;;;14.84;43.85
77303;BME280;66363;49.828;7.856;2023-04-25T12:05:13;99917.91;;;15.09;43.09
77303;BME280;66363;49.828;7.856;2023-04-25T12:07:39;99925.53;;;14.75;44.33
77303;BME280;66363;49.828;7.856;2023-04-25T12:10:05;99927.47;;;14.64;44.01
77303;BME280;66363;49.828;7.856;2023-04-25T12:12:32;99930.84;;;14.85;45.20
77303;BME280;66363;49.828;7.856;2023-04-25T12:15:08;99926.47;;;15.22;43.69
77303;BME280;66363;49.828;7.856;2023-04-25T12:17:44;99922.19;;;16.05;42.25
77303;BME280;66363;49.828;7.856;2023-04-25T12:20:13;99927.31;;;16.89;40.96
77303;BME280;66363;49.828;7.856;2023-04-25T12:22:40;99925.63;;;16.15;40.62
77303;BME280;66363;49.828;7.856;2023-04-25T12:25:07;99933.22;;;15.92;40.74
77303;BME280;66363;49.828;7.856;2023-04-25T12:27:32;99938.53;;;15.36;39.65
77303;BME280;66363;49.828;7.856;2023-04-25T12:29:58;99934.50;;;14.93;41.01
77303;BME280;66363;49.828;7.856;2023-04-25T12:32:24;99944.03;;;14.48;41.38
77303;BME280;66363;49.828;7.856;2023-04-25T12:34:51;99947.31;;;14.21;43.44
77303;BME280;66363;49.828;7.856;2023-04-25T12:37:17;99937.56;;;14.10;43.45
77303;BME280;66363;49.828;7.856;2023-04-25T12:39:42;99937.06;;;13.86;45.49
77303;BME280;66363;49.828;7.856;2023-04-25T12:42:08;99934.06;;;14.10;42.09
77303;BME280;66363;49.828;7.856;2023-04-25T12:44:33;99939.16;;;14.32;42.47
77303;BME280;66363;49.828;7.856;2023-04-25T12:46:59;99936.78;;;14.79;42.32
77303;BME280;66363;49.828;7.856;2023-04-25T12:49:25;99940.56;;;15.05;39.91
77303;BME280;66363;49.828;7.856;2023-04-25T12:51:52;99934.63;;;15.21;39.60
77303;BME280;66363;49.828;7.856;2023-04-25T12:54:17;99940.56;;;15.24;38.76
77303;BME280;66363;49.828;7.856;2023-04-25T12:56:43;99938.94;;;16.35;36.72
77303;BME280;66363;49.828;7.856;2023-04-25T12:59:09;99935.19;;;15.90;36.56
77303;BME280;66363;49.828;7.856;2023-04-25T13:01:34;99940.41;;;15.16;37.68
77303;BME280;66363;49.828;7.856;2023-04-25T13:04:00;99939.13;;;14.82;39.69